createdAt,value
2024-02-28T00:01:26.274Z,100203.81
2024-02-28T00:04:29.230Z,100208.34
2024-02-28T00:07:31.617Z,100204.16
2024-02-28T00:10:34.638Z,100205.78
2024-02-28T00:13:36.965Z,100204.16
2024-02-28T00:16:43.454Z,100201.22
2024-02-28T00:19:45.842Z,100199.22
2024-02-28T00:22:48.853Z,100193.09
2024-02-28T00:25:51.197Z,100199.94
2024-02-28T00:28:54.907Z,100207.78
2024-02-28T00:31:57.245Z,100203.69
2024-02-28T00:35:00.208Z,100206.91
2024-02-28T00:38:02.819Z,100205.97
2024-02-28T00:41:05.785Z,100211.69
2024-02-28T00:44:08.143Z,100205.06
2024-02-28T00:47:11.279Z,100207.69
2024-02-28T00:50:13.817Z,100203.50
2024-02-28T00:53:17.364Z,100204.09
2024-02-28T00:56:19.729Z,100208.25
2024-02-28T00:59:22.658Z,100207.88
2024-02-28T01:02:25.001Z,100211.88
2024-02-28T01:05:28.090Z,100211.81
2024-02-28T01:08:30.564Z,100208.94
2024-02-28T01:11:33.494Z,100218.91
2024-02-28T01:14:35.917Z,100220.03
2024-02-28T01:17:38.834Z,100218.16
2024-02-28T01:20:41.245Z,100216.31
2024-02-28T01:23:44.106Z,100217.06
2024-02-28T01:26:46.685Z,100211.00
2024-02-28T01:29:49.556Z,100206.56
2024-02-28T01:32:51.899Z,100216.72
2024-02-28T01:35:57.574Z,100207.19
2024-02-28T01:39:01.106Z,100211.13
2024-02-28T01:42:04.243Z,100209.00
2024-02-28T01:45:06.858Z,100219.16
2024-02-28T01:48:13.244Z,100212.31
2024-02-28T01:51:16.239Z,100211.09
2024-02-28T01:54:19.494Z,100218.97
2024-02-28T01:57:22.219Z,100221.38
2024-02-28T02:00:26.254Z,100233.37
2024-02-28T02:03:28.951Z,100234.16
2024-02-28T02:06:32.406Z,100234.84
2024-02-28T02:09:35.849Z,100237.28
2024-02-28T02:12:38.860Z,100235.34
2024-02-28T02:15:42.356Z,100236.25
2024-02-28T02:18:45.364Z,100234.78
2024-02-28T02:21:53.545Z,100236.06
2024-02-28T02:24:56.374Z,100241.28
2024-02-28T02:27:59.106Z,100237.72
2024-02-28T02:31:01.849Z,100246.91
2024-02-28T02:34:04.595Z,100253.72
2024-02-28T02:37:09.813Z,100256.53
2024-02-28T02:40:12.917Z,100258.22
2024-02-28T02:43:15.798Z,100258.13
2024-02-28T02:46:18.489Z,100261.88
2024-02-28T02:49:21.267Z,100253.72
2024-02-28T02:52:23.957Z,100265.88
2024-02-28T02:55:26.545Z,100260.34
2024-02-28T02:58:29.237Z,100251.94
2024-02-28T03:01:31.963Z,100257.19
2024-02-28T03:04:34.693Z,100255.91
2024-02-28T03:07:37.521Z,100254.41
2024-02-28T03:10:40.363Z,100263.41
2024-02-28T03:13:43.020Z,100260.87
2024-02-28T03:16:45.907Z,100272.25
2024-02-28T03:19:48.620Z,100267.97
2024-02-28T03:22:51.203Z,100263.09
2024-02-28T03:25:53.992Z,100268.50
2024-02-28T03:28:56.763Z,100276.28
2024-02-28T03:31:59.677Z,100284.41
2024-02-28T03:35:02.263Z,100274.37
2024-02-28T03:38:04.913Z,100273.84
2024-02-28T03:41:07.604Z,100288.59
2024-02-28T03:44:10.259Z,100290.31
2024-02-28T03:47:12.909Z,100293.91
2024-02-28T03:50:15.551Z,100287.56
2024-02-28T03:53:18.229Z,100298.56
2024-02-28T03:56:27.621Z,100295.22
2024-02-28T03:59:30.362Z,100296.50
2024-02-28T04:02:33.230Z,100287.59
2024-02-28T04:05:35.880Z,100287.28
2024-02-28T04:08:38.573Z,100290.84
2024-02-28T04:11:41.809Z,100296.84
2024-02-28T04:14:44.387Z,100301.03
2024-02-28T04:17:46.985Z,100306.50
2024-02-28T04:20:49.651Z,100306.72
2024-02-28T04:23:52.254Z,100301.44
2024-02-28T04:26:54.900Z,100307.66
2024-02-28T04:29:57.731Z,100317.97
2024-02-28T04:33:00.354Z,100312.78
2024-02-28T04:36:03.221Z,100319.28
2024-02-28T04:39:08.551Z,100314.63
2024-02-28T04:42:11.153Z,100312.03
2024-02-28T04:45:14.063Z,100308.25
2024-02-28T04:48:16.819Z,100311.97
2024-02-28T04:51:20.039Z,100305.88
2024-02-28T04:54:22.727Z,100309.47
2024-02-28T04:57:25.455Z,100328.72
2024-02-28T05:00:28.290Z,100319.66
2024-02-28T05:03:31.058Z,100320.50
2024-02-28T05:06:34.384Z,100317.47
2024-02-28T05:09:37.738Z,100316.53
2024-02-28T05:12:40.468Z,100321.97
2024-02-28T05:15:43.193Z,100316.66
2024-02-28T05:18:46.601Z,100328.22
2024-02-28T05:21:52.221Z,100333.03
2024-02-28T05:24:55.315Z,100331.34
2024-02-28T05:27:58.079Z,100334.09
2024-02-28T05:31:01.387Z,100354.81
2024-02-28T05:34:04.152Z,100353.34
2024-02-28T05:37:07.004Z,100354.69
2024-02-28T05:40:10.563Z,100364.12
2024-02-28T05:43:13.356Z,100357.88
2024-02-28T05:46:16.416Z,100361.94
2024-02-28T05:49:19.100Z,100371.47
2024-02-28T05:52:21.710Z,100371.22
2024-02-28T05:55:25.355Z,100364.59
2024-02-28T05:58:28.014Z,100372.78
2024-02-28T06:01:30.795Z,100383.06
2024-02-28T06:04:34.504Z,100373.47
2024-02-28T06:07:36.878Z,100380.88
2024-02-28T06:10:39.832Z,100379.91
2024-02-28T06:13:42.613Z,100380.69
2024-02-28T06:16:48.750Z,100388.22
2024-02-28T06:19:51.039Z,100388.66
2024-02-28T06:22:53.924Z,100386.28
2024-02-28T06:25:56.697Z,100385.84
2024-02-28T06:29:02.853Z,100392.56
2024-02-28T06:32:05.760Z,100385.44
2024-02-28T06:35:09.185Z,100385.25
2024-02-28T06:38:11.605Z,100400.13
2024-02-28T06:41:15.421Z,100394.38
2024-02-28T06:44:17.883Z,100394.94
2024-02-28T06:47:20.780Z,100394.44
2024-02-28T06:50:23.039Z,100401.53
2024-02-28T06:53:26.542Z,100401.53
2024-02-28T06:56:28.846Z,100406.19
2024-02-28T06:59:32.671Z,100401.28
2024-02-28T07:02:36.200Z,100404.16
2024-02-28T07:05:39.351Z,100396.81
2024-02-28T07:08:41.708Z,100407.41
2024-02-28T07:11:44.799Z,100411.94
2024-02-28T07:14:49.912Z,100412.69
2024-02-28T07:17:52.853Z,100421.31
2024-02-28T07:20:55.817Z,100429.22
2024-02-28T07:23:58.731Z,100431.09
2024-02-28T07:27:01.191Z,100431.62
2024-02-28T07:30:04.445Z,100435.50
2024-02-28T07:33:07.527Z,100428.72
2024-02-28T07:36:11.326Z,100436.97
2024-02-28T07:39:13.887Z,100443.87
2024-02-28T07:42:16.748Z,100443.78
2024-02-28T07:45:19.898Z,100437.94
2024-02-28T07:48:23.152Z,100453.16
2024-02-28T07:51:25.596Z,100448.13
2024-02-28T07:54:28.567Z,100451.06
2024-02-28T07:57:32.223Z,100454.53
2024-02-28T08:00:36.780Z,100455.53
2024-02-28T08:03:39.794Z,100461.56
2024-02-28T08:06:42.578Z,100450.06
2024-02-28T08:09:45.343Z,100460.56
2024-02-28T08:12:48.038Z,100458.06
2024-02-28T08:15:50.639Z,100454.88
2024-02-28T08:18:53.445Z,100460.72
2024-02-28T08:21:56.192Z,100450.53
2024-02-28T08:24:58.967Z,100462.03
2024-02-28T08:28:01.890Z,100468.19
2024-02-28T08:31:05.000Z,100468.16
2024-02-28T08:34:07.743Z,100467.25
2024-02-28T08:37:10.476Z,100466.44
2024-02-28T08:40:13.701Z,100466.12
2024-02-28T08:43:16.416Z,100462.09
2024-02-28T08:46:19.165Z,100462.12
2024-02-28T08:49:21.870Z,100459.06
2024-02-28T08:52:24.682Z,100453.66
2024-02-28T08:55:27.351Z,100455.81
2024-02-28T08:58:30.217Z,100460.47
2024-02-28T09:01:35.025Z,100451.00
2024-02-28T09:04:37.731Z,100457.31
2024-02-28T09:07:40.436Z,100454.37
2024-02-28T09:10:43.077Z,100457.13
2024-02-28T09:13:45.744Z,100447.59
2024-02-28T09:16:48.980Z,100454.31
2024-02-28T09:19:51.625Z,100452.09
2024-02-28T09:22:54.349Z,100444.97
2024-02-28T09:25:57.356Z,100448.94
2024-02-28T09:29:00.054Z,100449.12
2024-02-28T09:32:02.736Z,100458.63
2024-02-28T09:35:06.009Z,100450.25
2024-02-28T09:38:08.664Z,100459.31
2024-02-28T09:41:16.350Z,100452.66
2024-02-28T09:44:19.395Z,100458.75
2024-02-28T09:47:22.180Z,100450.03
2024-02-28T09:50:26.512Z,100456.56
2024-02-28T09:53:29.230Z,100459.50
2024-02-28T09:56:32.194Z,100458.75
2024-02-28T09:59:43.115Z,100456.53
2024-02-28T10:02:55.281Z,100458.22
2024-02-28T10:05:57.976Z,100464.69
2024-02-28T10:09:00.610Z,100469.06
2024-02-28T10:12:03.991Z,100472.38
2024-02-28T10:15:06.832Z,100464.41
2024-02-28T10:18:09.492Z,100468.19
2024-02-28T10:21:19.021Z,100465.34
2024-02-28T10:24:24.936Z,100465.25
2024-02-28T10:27:27.677Z,100467.25
2024-02-28T10:30:30.483Z,100462.28
2024-02-28T10:33:34.633Z,100465.25
2024-02-28T10:36:37.533Z,100463.87
2024-02-28T10:39:40.726Z,100473.34
2024-02-28T10:42:43.750Z,100467.44
2024-02-28T10:45:58.481Z,100458.69
2024-02-28T10:49:10.451Z,100464.41
2024-02-28T10:52:15.824Z,100463.44
2024-02-28T10:55:21.970Z,100456.88
2024-02-28T10:58:25.801Z,100466.12
2024-02-28T11:01:31.456Z,100466.38
2024-02-28T11:04:34.442Z,100465.09
2024-02-28T11:07:37.088Z,100467.63
2024-02-28T11:10:47.466Z,100466.16
2024-02-28T11:13:54.192Z,100467.19
2024-02-28T11:17:03.543Z,100467.87
2024-02-28T11:20:12.488Z,100461.22
2024-02-28T11:23:17.970Z,100455.28
2024-02-28T11:26:21.820Z,100459.16
2024-02-28T11:29:29.533Z,100453.97
2024-02-28T11:32:33.730Z,100457.37
2024-02-28T11:35:36.602Z,100455.88
2024-02-28T11:38:39.653Z,100448.88
2024-02-28T11:41:42.502Z,100450.72
2024-02-28T11:44:55.584Z,100445.16
2024-02-28T11:47:59.168Z,100445.88
2024-02-28T11:51:01.860Z,100441.06
2024-02-28T11:54:04.550Z,100440.13
2024-02-28T11:57:08.920Z,100438.47
2024-02-28T12:00:14.053Z,100435.59
2024-02-28T12:03:24.062Z,100432.38
2024-02-28T12:06:26.832Z,100426.87
2024-02-28T12:09:38.249Z,100424.00
2024-02-28T12:12:45.709Z,100423.87
2024-02-28T12:15:49.700Z,100428.25
2024-02-28T12:18:53.261Z,100426.78
2024-02-28T12:21:56.280Z,100414.66
2024-02-28T12:25:01.029Z,100415.31
2024-02-28T12:28:04.059Z,100416.78
2024-02-28T12:31:10.041Z,100417.38
2024-02-28T12:34:12.903Z,100412.56
2024-02-28T12:37:15.818Z,100411.56
2024-02-28T12:40:18.515Z,100413.75
2024-02-28T12:43:21.157Z,100417.38
2024-02-28T12:46:23.863Z,100409.25
2024-02-28T12:49:26.632Z,100409.38
2024-02-28T12:52:29.475Z,100407.56
2024-02-28T12:55:32.349Z,100401.69
2024-02-28T12:58:34.995Z,100405.47
2024-02-28T13:01:37.916Z,100412.00
2024-02-28T13:04:40.881Z,100409.47
2024-02-28T13:07:43.976Z,100408.72
2024-02-28T13:10:46.616Z,100393.37
2024-02-28T13:13:50.363Z,100399.28
2024-02-28T13:16:55.003Z,100393.97
2024-02-28T13:19:57.619Z,100388.81
2024-02-28T13:23:01.336Z,100391.19
2024-02-28T13:26:05.690Z,100389.31
2024-02-28T13:29:08.451Z,100393.63
2024-02-28T13:32:11.066Z,100390.91
2024-02-28T13:35:13.712Z,100382.06
2024-02-28T13:38:16.308Z,100384.84
2024-02-28T13:41:18.915Z,100382.59
2024-02-28T13:44:21.524Z,100383.84
2024-02-28T13:47:24.829Z,100378.66
2024-02-28T13:50:32.842Z,100372.03
2024-02-28T13:53:36.048Z,100380.19
2024-02-28T13:56:38.931Z,100377.28
2024-02-28T13:59:41.597Z,100374.56
2024-02-28T14:02:44.233Z,100371.94
2024-02-28T14:05:46.885Z,100378.69
2024-02-28T14:08:50.080Z,100376.31
2024-02-28T14:11:52.883Z,100381.94
2024-02-28T14:14:55.667Z,100389.16
2024-02-28T14:17:58.356Z,100376.22
2024-02-28T14:21:03.471Z,100375.56
2024-02-28T14:24:08.396Z,100384.75
2024-02-28T14:27:11.032Z,100381.34
2024-02-28T14:30:14.196Z,100391.12
2024-02-28T14:33:17.336Z,100387.78
2024-02-28T14:36:21.783Z,100386.03
2024-02-28T14:39:25.584Z,100388.00
2024-02-28T14:42:28.410Z,100390.69
2024-02-28T14:45:33.298Z,100390.84
2024-02-28T14:48:36.272Z,100388.44
2024-02-28T14:51:40.537Z,100383.25
2024-02-28T14:54:45.462Z,100383.34
2024-02-28T14:57:48.149Z,100383.53
2024-02-28T15:00:50.889Z,100392.41
2024-02-28T15:03:53.645Z,100395.22
2024-02-28T15:06:56.498Z,100390.91
2024-02-28T15:10:01.488Z,100398.03
2024-02-28T15:13:05.315Z,100403.34
2024-02-28T15:16:08.234Z,100400.72
2024-02-28T15:19:11.016Z,100406.13
2024-02-28T15:22:13.676Z,100399.16
2024-02-28T15:25:16.462Z,100401.94
2024-02-28T15:28:19.083Z,100404.56
2024-02-28T15:31:22.449Z,100398.44
2024-02-28T15:34:25.101Z,100405.50
2024-02-28T15:37:28.175Z,100411.72
2024-02-28T15:40:30.980Z,100417.88
2024-02-28T15:43:34.632Z,100414.41
2024-02-28T15:46:38.732Z,100424.97
2024-02-28T15:49:41.918Z,100418.81
2024-02-28T15:52:45.151Z,100422.34
2024-02-28T15:55:47.883Z,100423.22
2024-02-28T15:58:50.589Z,100432.91
2024-02-28T16:01:53.192Z,100428.50
2024-02-28T16:04:56.089Z,100434.59
2024-02-28T16:07:58.550Z,100439.03
2024-02-28T16:11:01.654Z,100437.22
2024-02-28T16:14:04.187Z,100435.41
2024-02-28T16:17:07.159Z,100445.94
2024-02-28T16:20:10.026Z,100448.50
2024-02-28T16:23:13.256Z,100452.03
2024-02-28T16:26:16.274Z,100455.53
2024-02-28T16:29:19.208Z,100456.31
2024-02-28T16:32:21.535Z,100465.06
2024-02-28T16:35:24.444Z,100465.84
2024-02-28T16:38:26.819Z,100467.44
2024-02-28T16:41:29.725Z,100475.31
2024-02-28T16:44:32.614Z,100477.09
2024-02-28T16:47:35.760Z,100485.13
2024-02-28T16:50:38.194Z,100482.31
2024-02-28T16:53:41.486Z,100486.66
2024-02-28T16:56:43.892Z,100484.78
2024-02-28T16:59:47.439Z,100490.03
2024-02-28T17:02:49.903Z,100489.03
2024-02-28T17:05:52.766Z,100488.97
2024-02-28T17:08:55.095Z,100501.22
2024-02-28T17:11:58.056Z,100495.16
2024-02-28T17:15:00.684Z,100495.84
2024-02-28T17:18:04.374Z,100499.38
2024-02-28T17:21:07.376Z,100503.56
2024-02-28T17:24:10.448Z,100506.19
2024-02-28T17:27:13.038Z,100508.69
2024-02-28T17:30:16.920Z,100511.31
2024-02-28T17:33:19.349Z,100519.38
2024-02-28T17:36:22.397Z,100517.72
2024-02-28T17:39:25.659Z,100520.12
2024-02-28T17:42:31.503Z,100518.28
2024-02-28T17:45:33.988Z,100519.94
2024-02-28T17:48:39.184Z,100519.06
2024-02-28T17:51:43.727Z,100518.91
2024-02-28T17:54:47.545Z,100515.41
2024-02-28T17:57:51.869Z,100514.75
2024-02-28T18:00:59.040Z,100516.25
2024-02-28T18:04:02.884Z,100518.94
2024-02-28T18:07:05.636Z,100522.97
2024-02-28T18:10:08.628Z,100523.03
2024-02-28T18:13:16.181Z,100524.13
2024-02-28T18:16:20.431Z,100516.84
2024-02-28T18:19:23.492Z,100530.06
2024-02-28T18:22:26.150Z,100519.56
2024-02-28T18:25:28.738Z,100517.91
2024-02-28T18:28:31.456Z,100531.00
2024-02-28T18:31:34.283Z,100524.47
2024-02-28T18:34:36.962Z,100537.50
2024-02-28T18:37:41.330Z,100536.69
2024-02-28T18:40:44.592Z,100544.50
2024-02-28T18:43:48.136Z,100545.31
2024-02-28T18:46:51.119Z,100545.25
2024-02-28T18:49:53.780Z,100544.41
2024-02-28T18:52:56.429Z,100547.88
2024-02-28T18:55:59.097Z,100549.59
2024-02-28T18:59:01.804Z,100550.38
2024-02-28T19:02:06.148Z,100557.31
2024-02-28T19:05:09.016Z,100552.06
2024-02-28T19:08:11.909Z,100559.00
2024-02-28T19:11:14.577Z,100555.37
2024-02-28T19:14:17.200Z,100567.59
2024-02-28T19:17:20.787Z,100564.88
2024-02-28T19:20:24.277Z,100574.62
2024-02-28T19:23:26.841Z,100572.50
2024-02-28T19:26:31.411Z,100574.19
2024-02-28T19:29:34.105Z,100570.78
2024-02-28T19:32:39.024Z,100567.19
2024-02-28T19:35:42.164Z,100570.88
2024-02-28T19:38:44.781Z,100574.12
2024-02-28T19:41:47.490Z,100582.81
2024-02-28T19:44:50.171Z,100569.75
2024-02-28T19:47:53.191Z,100573.38
2024-02-28T19:50:55.900Z,100586.69
2024-02-28T19:53:59.279Z,100589.91
2024-02-28T19:57:01.876Z,100581.06
2024-02-28T20:00:10.362Z,100593.25
2024-02-28T20:03:14.363Z,100590.59
2024-02-28T20:06:17.084Z,100591.53
2024-02-28T20:09:20.043Z,100591.34
2024-02-28T20:12:22.496Z,100586.19
2024-02-28T20:15:26.375Z,100593.09
2024-02-28T20:18:28.910Z,100591.50
2024-02-28T20:21:31.945Z,100595.78
2024-02-28T20:24:35.138Z,100594.75
2024-02-28T20:27:38.102Z,100595.78
2024-02-28T20:30:40.667Z,100594.03
2024-02-28T20:33:45.470Z,100594.59
2024-02-28T20:36:48.148Z,100596.28
2024-02-28T20:39:51.216Z,100607.00
2024-02-28T20:42:53.687Z,100602.28
2024-02-28T20:45:56.959Z,100608.09
2024-02-28T20:48:59.327Z,100602.25
2024-02-28T20:52:02.458Z,100598.34
2024-02-28T20:55:05.446Z,100611.97
2024-02-28T20:58:08.660Z,100610.25
2024-02-28T21:01:11.110Z,100602.84
2024-02-28T21:04:17.285Z,100593.88
2024-02-28T21:07:23.038Z,100604.09
2024-02-28T21:10:30.337Z,100609.25
2024-02-28T21:13:32.744Z,100608.19
2024-02-28T21:16:37.793Z,100603.88
2024-02-28T21:19:40.168Z,100607.38
2024-02-28T21:22:43.107Z,100612.91
2024-02-28T21:25:45.538Z,100610.72
2024-02-28T21:28:48.448Z,100614.81
2024-02-28T21:31:50.856Z,100615.06
2024-02-28T21:34:53.674Z,100615.72
2024-02-28T21:37:55.977Z,100622.56
2024-02-28T21:40:58.941Z,100626.31
2024-02-28T21:44:01.654Z,100617.16
2024-02-28T21:47:04.505Z,100617.25
2024-02-28T21:50:07.330Z,100618.25
2024-02-28T21:53:10.411Z,100617.38
2024-02-28T21:56:12.797Z,100616.25
2024-02-28T21:59:15.727Z,100618.88
2024-02-28T22:02:19.689Z,100618.84
2024-02-28T22:05:23.458Z,100617.16
2024-02-28T22:08:25.792Z,100614.16
2024-02-28T22:11:29.676Z,100619.34
2024-02-28T22:14:32.070Z,100617.78
2024-02-28T22:17:35.034Z,100616.72
2024-02-28T22:20:37.487Z,100622.00
2024-02-28T22:23:40.426Z,100622.00
2024-02-28T22:26:42.775Z,100623.78
2024-02-28T22:29:45.644Z,100621.97
2024-02-28T22:32:47.990Z,100625.38
2024-02-28T22:35:51.706Z,100627.59
2024-02-28T22:38:54.201Z,100625.41
2024-02-28T22:42:00.128Z,100623.28
2024-02-28T22:45:02.875Z,100622.97
2024-02-28T22:48:05.964Z,100621.59
2024-02-28T22:51:08.406Z,100630.28
2024-02-28T22:54:15.920Z,100623.22
2024-02-28T22:57:18.683Z,100618.03
2024-02-28T23:00:31.189Z,100614.59
2024-02-28T23:03:33.979Z,100612.78
2024-02-28T23:06:36.995Z,100616.34
2024-02-28T23:09:39.408Z,100607.28
2024-02-28T23:12:42.362Z,100607.44
2024-02-28T23:15:44.827Z,100606.50
2024-02-28T23:18:47.815Z,100604.53
2024-02-28T23:21:50.222Z,100605.28
2024-02-28T23:24:53.187Z,100604.41
2024-02-28T23:27:55.842Z,100613.37
2024-02-28T23:30:58.975Z,100609.25
2024-02-28T23:34:01.480Z,100612.63
2024-02-28T23:37:04.660Z,100606.97
2024-02-28T23:40:10.183Z,100612.28
2024-02-28T23:43:13.221Z,100619.00
2024-02-28T23:46:15.676Z,100619.50
2024-02-28T23:49:18.752Z,100620.22
2024-02-28T23:52:21.100Z,100626.75
2024-02-28T23:55:46.210Z,100632.00
2024-02-28T23:58:48.889Z,100626.63
